Airfield :
LOGIN :

Register | Disclaimer

   EN    FR    IT 

 










Legend :    VFR   Marginal VFR   IFR   Intensive IFR   Very Intensive IFR
Visi :
Ceiling :
>= 8 km
>= 3000ft
5 to 8 km
1000 to 3000 ft
1500m to 5 km
500 to 1000 ft
800 to 1500m
200 to 500 ft
< 800m
< 200 ft
Symbols :   Thunderstorms  Fog  Heavy snow  Heavy precipitations  Wind > 20 kt
SIGMETs :     Misc.  Thunderstorms  Icing  Turbulence  Mountain Waves  Volcanic Ashes






- Airport Elevation : 256 ft
- IATA code : CFR


LFRK - Caen

CURRENT METAR :
  • 271730Z AUTO 22014KT 9999 BKN022 BKN040 OVC047 08/06 Q0999 TEMPO 22015G30KT 3000 TSRAGS BKN012CB

EXPIRED METARs :
  • 271700Z AUTO 23015KT 9999 BKN023 BKN029 08/06 Q0999 TEMPO 22015G30KT 3000 TSRAGS BKN012CB
  • 271630Z AUTO 23018KT 9999 BKN021 BKN027 BKN190 09/06 Q0999 TEMPO 22015G30KT 3000 TSRAGS BKN012CB
  • 271600Z AUTO 22018KT CAVOK 09/06 Q0999 TEMPO SHRA BKN015TCU
  • 271530Z AUTO 21021G32KT 9999 FEW021 SCT068 BKN088 09/06 Q0999 TEMPO SHRA BKN015TCU BECMG 21013KT
  • 271500Z AUTO 20017KT 9999 -RA BKN025/// BKN034/// BKN046/// ///TCU 09/07 Q0999 TEMPO SHRA

TAF TAF LFRK
Valid from the 27 at 15:00 until the 28 at 00:00 UTC


271400Z 2715/2724 21013KT 9999 BKN020
PROB30
TEMPO 2715/2718 5000 SHRA BKN015TCU
TEMPO 2718/2724 4000 SHRA BKN012CB
PROB40
TEMPO 2718/2720 22015G30KT
PROB40
TEMPO 2718/2724 3000 TSRAGS
BECMG 2720/2722 23015G30KT
Met : +33 2 31 26 68 11



MET'MAP, your aeronautical weather chart ! - Copyright ORBIFLY December 2007 - Disclaimer

ORBIFLY MET'MAP TEAM :

Programming & Development : Alexandra Zaïnal
Concept & original design : Baudouin d'Aumeries
Assistance for programming : Marc-Olivier Méhu
Technical & hardware support : Manuel Goepfert

Contact : metmap@orbifly.com




SOURCES & CREDITS :

   NOAA